^^
Lisbon, NH - Weather Station Historical Data
Daily Summary for July 17, 2021 Units:  English    Metric   Both
Daily Weekly Monthly Yearly
  High: Low: Average:
Temperature: 73.6 °F 63.7 °F 68 °F
Dew Point: 69 °F 63.3 °F 66.2 °F
Humidity: 100% 74.1% 94%
Wind Speed: 2mph 0mph 0.3mph
Wind Gust: 5mph - -
Wind- - SE
Pressure: 30.07 in 30.00 in -
Precipitation: 0.32 in    
 
 
Tabular Data for July 17, 2021
Time Temperature Dew Point Pressure Wind Wind Speed Wind Gust Humidity Rainfall Rate (Hourly) solar
00:04 67.3 °F 65.5 °F 30.00 in Calm     94% 0.00 in 0 W/m2
00:09 67.1 °F 65.3 °F 30.00 in Calm     94% 0.00 in 0 W/m2
00:14 67.1 °F 65.3 °F 30.00 in Calm     94.1% 0.00 in 0 W/m2
00:19 66.9 °F 65.4 °F 30.00 in Calm     95% 0.00 in 0 W/m2
00:24 66.9 °F 65.4 °F 30.00 in Calm     95% 0.00 in 0 W/m2
00:29 66.9 °F 65.4 °F 30.00 in Calm     95% 0.00 in 0 W/m2
00:34 66.8 °F 65.4 °F 30.00 in Calm     95% 0.00 in 0 W/m2
00:39 66.8 °F 65.3 °F 30.00 in Calm     95% 0.00 in 0 W/m2
00:44 66.8 °F 65.3 °F 30.00 in ENE 0.6 mph 2 mph 95% 0.00 in 0 W/m2
00:49 66.8 °F 65.5 °F 30.00 in ENE 0.8 mph 3 mph 95.4% 0.00 in 0 W/m2
00:54 66.6 °F 65.3 °F 30.00 in Calm   1 mph 95.5% 0.00 in 0 W/m2
00:59 66.6 °F 65.4 °F 30.00 in Calm     96% 0.00 in 0 W/m2
01:04 66.5 °F 65.3 °F 30.00 in Calm     96% 0.00 in 0 W/m2
01:09 66.4 °F 65.2 °F 30.00 in Calm     96% 0.00 in 0 W/m2
01:14 66.4 °F 65.2 °F 30.00 in ENE 0.1 mph 1 mph 96% 0.00 in 0 W/m2
01:19 66.4 °F 65.2 °F 30.00 in Calm     96% 0.00 in 0 W/m2
01:24 66.4 °F 65.2 °F 30.00 in Calm     96% 0.00 in 0 W/m2
01:29 66.3 °F 65.1 °F 30.00 in Calm     96% 0.00 in 0 W/m2
01:34 66.3 °F 65.1 °F 30.00 in Calm     96% 0.00 in 0 W/m2
01:39 66.3 °F 65.2 °F 30.00 in Calm     96.2% 0.00 in 0 W/m2
01:44 66.2 °F 65 °F 30.01 in Calm     96.1% 0.00 in 0 W/m2
01:49 66.1 °F 64.9 °F 30.01 in Calm     96% 0.00 in 0 W/m2
01:54 66 °F 64.9 °F 30.01 in Calm     96% 0.00 in 0 W/m2
01:59 66 °F 65.1 °F 30.01 in Calm     96.8% 0.00 in 0 W/m2
02:04 65.8 °F 64.8 °F 30.01 in Calm     96.6% 0.00 in 0 W/m2
02:09 65.6 °F 64.6 °F 30.01 in Calm     96.6% 0.00 in 0 W/m2
02:14 65.6 °F 64.7 °F 30.01 in NE 0.1 mph 1 mph 97% 0.00 in 0 W/m2
02:19 65.5 °F 64.7 °F 30.01 in Calm   1 mph 97% 0.00 in 0 W/m2
02:24 65.5 °F 64.6 °F 30.01 in Calm     97% 0.00 in 0 W/m2
02:29 65.4 °F 64.5 °F 30.01 in Calm     97% 0.00 in 0 W/m2
02:34 65.2 °F 64.4 °F 30.01 in Calm     97.2% 0.00 in 0 W/m2
02:39 65.1 °F 64.5 °F 30.01 in Calm     97.9% 0.00 in 0 W/m2
02:44 65 °F 64.4 °F 30.01 in Calm     98% 0.00 in 0 W/m2
02:49 65 °F 64.4 °F 30.01 in Calm     98% 0.00 in 0 W/m2
02:54 64.8 °F 64.2 °F 30.01 in Calm     98% 0.00 in 0 W/m2
02:59 64.8 °F 64.2 °F 30.02 in Calm     98% 0.00 in 0 W/m2
03:04 64.7 °F 64.1 °F 30.02 in Calm     98% 0.00 in 0 W/m2
03:09 64.7 °F 64.3 °F 30.02 in Calm     98.4% 0.00 in 0 W/m2
03:14 64.7 °F 64.4 °F 30.03 in Calm     99% 0.00 in 0 W/m2
03:19 64.5 °F 64.3 °F 30.03 in Calm     99% 0.00 in 0 W/m2
03:24 64.5 °F 64.2 °F 30.03 in Calm     99% 0.00 in 0 W/m2
03:29 64.5 °F 64.2 °F 30.03 in Calm     99% 0.00 in 0 W/m2
03:34 64.5 °F 64.2 °F 30.03 in Calm     99% 0.00 in 0 W/m2
03:39 64.4 °F 64.1 °F 30.03 in Calm     99% 0.00 in 0 W/m2
03:44 64.3 °F 64 °F 30.03 in Calm     99% 0.00 in 0 W/m2
03:49 64.3 °F 64.1 °F 30.03 in Calm     99.3% 0.00 in 0 W/m2
03:54 64.3 °F 64.3 °F 30.03 in Calm     100% 0.00 in 0 W/m2
03:59 64.3 °F 64.3 °F 30.03 in Calm     100% 0.00 in 0 W/m2
04:04 64.3 °F 64.3 °F 30.03 in Calm     100% 0.00 in 0 W/m2
04:09 64.3 °F 64.3 °F 30.03 in Calm     100% 0.00 in 0 W/m2
04:14 64.3 °F 64.3 °F 30.03 in Calm     100% 0.00 in 0 W/m2
04:19 64.3 °F 64.3 °F 30.03 in Calm     100% 0.00 in 0 W/m2
04:24 64.3 °F 64.3 °F 30.03 in Calm     100% 0.00 in 0 W/m2
04:29 64.3 °F 64.3 °F 30.03 in Calm     100% 0.00 in 0 W/m2
04:34 64.3 °F 64.3 °F 30.03 in Calm     100% 0.00 in 0 W/m2
04:39 64.3 °F 64.3 °F 30.03 in Calm     100% 0.00 in 0 W/m2
04:44 64.2 °F 64.2 °F 30.03 in Calm     100% 0.00 in 0 W/m2
04:49 64.2 °F 64.2 °F 30.03 in Calm     100% 0.00 in 0 W/m2
04:54 64 °F 64 °F 30.03 in Calm     100% 0.00 in 0 W/m2
04:59 64 °F 64 °F 30.03 in Calm     100% 0.00 in 0 W/m2
05:04 64 °F 64 °F 30.03 in Calm     100% 0.00 in 0 W/m2
05:09 63.9 °F 63.9 °F 30.03 in Calm     100% 0.00 in 0 W/m2
05:14 64 °F 64 °F 30.04 in Calm     100% 0.00 in 0 W/m2
05:19 63.9 °F 63.9 °F 30.04 in Calm     100% 0.00 in 0 W/m2
05:24 63.9 °F 63.9 °F 30.04 in Calm     100% 0.00 in 0 W/m2
05:29 63.9 °F 63.9 °F 30.05 in Calm     100% 0.00 in 5 W/m2
05:34 63.8 °F 63.8 °F 30.05 in Calm     100% 0.00 in 5 W/m2
05:39 63.7 °F 63.7 °F 30.05 in Calm     100% 0.00 in 9 W/m2
05:44 63.8 °F 63.8 °F 30.05 in Calm     100% 0.00 in 11 W/m2
05:49 63.8 °F 63.8 °F 30.05 in Calm     100% 0.00 in 14 W/m2
05:54 63.9 °F 63.9 °F 30.05 in Calm     100% 0.00 in 14 W/m2
05:59 63.9 °F 63.9 °F 30.06 in NE 0.3 mph 2 mph 100% 0.00 in 14 W/m2
06:04 63.9 °F 63.9 °F 30.06 in ENE 0.4 mph 2 mph 100% 0.00 in 18 W/m2
06:09 63.9 °F 63.9 °F 30.06 in Calm   1 mph 100% 0.00 in 19 W/m2
06:14 63.9 °F 63.9 °F 30.07 in Calm     100% 0.00 in 19 W/m2
06:19 64 °F 64 °F 30.07 in Calm     100% 0.00 in 25 W/m2
06:24 64.2 °F 64.2 °F 30.07 in Calm     100% 0.00 in 30 W/m2
06:29 64.2 °F 64.2 °F 30.07 in ENE 0.1 mph 1 mph 100% 0.00 in 33 W/m2
06:34 64.2 °F 64.2 °F 30.07 in ENE 0.5 mph 2 mph 100% 0.00 in 44 W/m2
06:39 64.3 °F 64.3 °F 30.07 in ENE 1.2 mph 3 mph 100% 0.00 in 44 W/m2
06:44 64.3 °F 64.3 °F 30.07 in ENE 0.3 mph 2 mph 100% 0.00 in 53 W/m2
06:49 64.5 °F 64.5 °F 30.07 in ENE 0.8 mph 2 mph 100% 0.00 in 58 W/m2
06:54 64.5 °F 64.5 °F 30.07 in ENE 0.9 mph 2 mph 100% 0.00 in 70 W/m2
06:59 64.7 °F 64.7 °F 30.07 in ENE 1 mph 2 mph 100% 0.00 in 74 W/m2
07:04 64.7 °F 64.7 °F 30.06 in ENE 1.6 mph 3 mph 100% 0.00 in 72 W/m2
07:09 64.7 °F 64.7 °F 30.06 in ENE 1.5 mph 3 mph 100% 0.00 in 77 W/m2
07:14 64.8 °F 64.8 °F 30.07 in ENE 1.6 mph 3 mph 100% 0.00 in 77 W/m2
07:19 64.9 °F 64.9 °F 30.07 in NE 0.4 mph 3 mph 100% 0.00 in 72 W/m2
07:24 65 °F 65 °F 30.07 in NE 0.1 mph 1 mph 100% 0.00 in 76 W/m2
07:29 65.2 °F 65.2 °F 30.07 in Calm     100% 0.00 in 72 W/m2
07:34 65.2 °F 65.1 °F 30.07 in NNE 0.2 mph 1 mph 99.5% 0.00 in 76 W/m2
07:39 65.2 °F 65 °F 30.07 in NE 0.9 mph 3 mph 99% 0.00 in 91 W/m2
07:44 65.4 °F 65.1 °F 30.07 in ENE 0.5 mph 3 mph 99% 0.00 in 91 W/m2
07:49 65.5 °F 65.2 °F 30.06 in ENE 1 mph 3 mph 99% 0.00 in 88 W/m2
07:54 65.6 °F 65.1 °F 30.06 in ENE 1.5 mph 3 mph 98.3% 0.00 in 95 W/m2
07:59 65.9 °F 65.3 °F 30.07 in ENE 1.5 mph 3 mph 98% 0.00 in 95 W/m2
08:04 66 °F 65.1 °F 30.07 in ENE 1.7 mph 3 mph 97.1% 0.00 in 111 W/m2
08:09 66.1 °F 65.1 °F 30.07 in ENE 1.8 mph 3 mph 96.7% 0.00 in 127 W/m2
08:14 66.2 °F 65 °F 30.07 in ENE 1.8 mph 3 mph 96% 0.00 in 135 W/m2
08:19 66.4 °F 65.1 °F 30.07 in NE 1.7 mph 3 mph 95.6% 0.00 in 157 W/m2
08:24 66.6 °F 65.2 °F 30.07 in NE 0.8 mph 3 mph 95% 0.00 in 158 W/m2
08:29 66.8 °F 65.1 °F 30.07 in ENE 1.7 mph 5 mph 94.1% 0.00 in 174 W/m2
08:34 67.1 °F 65.2 °F 30.07 in ENE 2 mph 5 mph 93.4% 0.00 in 227 W/m2
08:39 67.4 °F 65.1 °F 30.07 in ENE 1.8 mph 4 mph 92.2% 0.00 in 236 W/m2
08:44 67.8 °F 65 °F 30.07 in ENE 2 mph 4 mph 90.9% 0.00 in 296 W/m2
08:49 68.2 °F 65 °F 30.06 in ENE 2 mph 3 mph 89.5% 0.00 in 327 W/m2
08:54 68.6 °F 64.8 °F 30.06 in ENE 1.8 mph 3 mph 87.9% 0.00 in 260 W/m2
08:59 68.9 °F 64.8 °F 30.07 in East 1.6 mph 3 mph 87% 0.00 in 260 W/m2
09:04 69 °F 65 °F 30.07 in ENE 2 mph 4 mph 87% 0.00 in 218 W/m2
09:09 69.3 °F 64.9 °F 30.07 in NE 1 mph 2 mph 85.8% 0.00 in 204 W/m2
09:14 69.5 °F 64.9 °F 30.07 in NE 0.3 mph 2 mph 85.4% 0.00 in 155 W/m2
09:19 69.5 °F 64.9 °F 30.07 in ENE 0.7 mph 3 mph 85.1% 0.00 in 146 W/m2
09:24 69.6 °F 65 °F 30.07 in East 0.2 mph 2 mph 85.4% 0.00 in 148 W/m2
09:29 69.5 °F 64.9 °F 30.07 in ENE 0.5 mph 2 mph 85.4% 0.00 in 164 W/m2
09:34 69.4 °F 64.7 °F 30.07 in Calm     85% 0.00 in 174 W/m2
09:39 69.6 °F 64.9 °F 30.07 in Calm     85% 0.00 in 192 W/m2
09:44 69.6 °F 64.8 °F 30.07 in ESE 0.3 mph 2 mph 84.6% 0.00 in 246 W/m2
09:49 69.7 °F 64.9 °F 30.06 in SE 0.1 mph 2 mph 84.8% 0.00 in 297 W/m2
09:54 70 °F 65.2 °F 30.06 in ESE 0.2 mph 1 mph 84.8% 0.00 in 304 W/m2
09:59 70.5 °F 65.6 °F 30.06 in East 0.3 mph 1 mph 84.4% 0.00 in 311 W/m2
10:04 70.6 °F 65 °F 30.06 in ENE 0.7 mph 2 mph 82.7% 0.00 in 299 W/m2
10:09 70.8 °F 65.4 °F 30.06 in NE 0.1 mph 2 mph 83% 0.00 in 266 W/m2
10:14 71.1 °F 65.3 °F 30.06 in NE 0.2 mph 1 mph 82% 0.00 in 269 W/m2
10:19 71.2 °F 65.2 °F 30.06 in Calm   1 mph 81.5% 0.00 in 248 W/m2
10:24 71.5 °F 65.9 °F 30.06 in Calm     82.6% 0.00 in 190 W/m2
10:29 71.7 °F 66.3 °F 30.06 in Calm     83% 0.00 in 241 W/m2
10:34 71.8 °F 66.2 °F 30.06 in NNE 0.2 mph 1 mph 82.4% 0.00 in 271 W/m2
10:39 71.8 °F 65.5 °F 30.06 in NNE 0.3 mph 2 mph 80.6% 0.00 in 271 W/m2
10:44 72 °F 65.2 °F 30.07 in NNE 0.4 mph 2 mph 79% 0.00 in 274 W/m2
10:49 72.2 °F 65 °F 30.07 in East 1 mph 2 mph 78% 0.00 in 285 W/m2
10:54 72.1 °F 63.8 °F 30.07 in ENE 1 mph 3 mph 75.2% 0.00 in 290 W/m2
10:59 72.1 °F 63.3 °F 30.07 in ENE 0.4 mph 2 mph 74.1% 0.00 in 296 W/m2
11:04 72.2 °F 63.8 °F 30.07 in South 0.2 mph 1 mph 74.8% 0.00 in 267 W/m2
11:09 72.6 °F 64.9 °F 30.07 in South 0.3 mph 2 mph 76.7% 0.00 in 259 W/m2
11:14 72.9 °F 65.9 °F 30.07 in Calm   1 mph 78.8% 0.00 in 299 W/m2
11:19 73 °F 65.4 °F 30.07 in SSW 1.3 mph 2 mph 77.2% 0.00 in 297 W/m2
11:24 72.8 °F 64.8 °F 30.07 in SSW 0.1 mph 2 mph 76.1% 0.00 in 290 W/m2
11:29 72.8 °F 64.7 °F 30.07 in SSE 0.5 mph 2 mph 75.9% 0.00 in 313 W/m2
11:34 72.8 °F 64.4 °F 30.07 in Calm   1 mph 75.1% 0.00 in 313 W/m2
11:39 73 °F 64.7 °F 30.07 in SE 0.8 mph 2 mph 75.3% 0.00 in 308 W/m2
11:44 73.1 °F 64.7 °F 30.07 in SSW 0.5 mph 4 mph 75.1% 0.00 in 304 W/m2
11:49 73.3 °F 65.3 °F 30.07 in SSW 0.8 mph 4 mph 76.1% 0.00 in 282 W/m2
11:54 73.2 °F 65.3 °F 30.07 in East 0.6 mph 2 mph 76.1% 0.00 in 257 W/m2
11:59 73.4 °F 66 °F 30.07 in ENE 0.8 mph 2 mph 77.6% 0.00 in 236 W/m2
12:04 73.6 °F 66.1 °F 30.07 in East 1.2 mph 4 mph 77.5% 0.00 in 245 W/m2
12:09 73.5 °F 66.4 °F 30.07 in SW 1 mph 4 mph 78.4% 0.00 in 238 W/m2
12:14 73.5 °F 66.8 °F 30.07 in Calm     79.7% 0.00 in 187 W/m2
12:19 73.5 °F 67.1 °F 30.07 in Calm     80.5% 0.00 in 169 W/m2
12:24 73.5 °F 67.6 °F 30.07 in Calm     81.7% 0.00 in 165 W/m2
12:29 73.3 °F 68.1 °F 30.07 in SW 0.2 mph 2 mph 83.8% 0.00 in 139 W/m2
12:34 73.2 °F 68.5 °F 30.07 in Calm   2 mph 85% 0.00 in 169 W/m2
12:39 73 °F 68.5 °F 30.07 in SW 0.1 mph 1 mph 85.9% 0.01 in 176 W/m2
12:44 72.8 °F 69 °F 30.07 in Calm   1 mph 87.8% 0.01 in 176 W/m2
12:49 72.6 °F 68.8 °F 30.07 in SSW 0.4 mph 3 mph 87.9% 0.01 in 179 W/m2
12:54 72.1 °F 68.4 °F 30.07 in SW 0.8 mph 2 mph 88.2% 0.01 in 178 W/m2
12:59 71.6 °F 68.2 °F 30.07 in SW 1.7 mph 5 mph 89% 0.02 in 187 W/m2
13:04 71.2 °F 68.2 °F 30.07 in SW 1 mph 3 mph 90.2% 0.02 in 194 W/m2
13:09 70.9 °F 68.3 °F 30.07 in SW 0.4 mph 3 mph 91.6% 0.02 in 169 W/m2
13:14 70.7 °F 68.6 °F 30.07 in SW 1 mph 3 mph 92.9% 0.02 in 162 W/m2
13:19 70.5 °F 68.6 °F 30.07 in SSW 0.1 mph 1 mph 93.8% 0.02 in 167 W/m2
13:24 70.3 °F 68.5 °F 30.07 in Calm     94% 0.02 in 176 W/m2
13:29 70.1 °F 68.6 °F 30.07 in SSW 0.2 mph 2 mph 94.8% 0.03 in 162 W/m2
13:34 69.9 °F 68.4 °F 30.07 in SSW 0.8 mph 3 mph 95% 0.03 in 181 W/m2
13:39 69.8 °F 68.3 °F 30.07 in SSW 0.1 mph 3 mph 95% 0.03 in 178 W/m2
13:44 69.7 °F 68.3 °F 30.07 in SSW 0.5 mph 3 mph 95.3% 0.03 in 157 W/m2
13:49 69.5 °F 68 °F 30.07 in SW 1.3 mph 4 mph 95% 0.02 in 130 W/m2
13:54 69.3 °F 68 °F 30.07 in SW 0.5 mph 3 mph 95.6% 0.02 in 137 W/m2
13:59 69.3 °F 68.3 °F 30.07 in Calm   1 mph 96.6% 0.03 in 137 W/m2
14:04 69.3 °F 68.3 °F 30.07 in SSW 0.5 mph 4 mph 96.5% 0.03 in 172 W/m2
14:09 69 °F 67.9 °F 30.07 in SW 0.3 mph 2 mph 96.1% 0.03 in 172 W/m2
14:14 68.9 °F 67.8 °F 30.07 in SSW 0.5 mph 5 mph 96.6% 0.03 in 146 W/m2
14:19 68.4 °F 67.3 °F 30.07 in SW 1.3 mph 5 mph 96% 0.04 in 141 W/m2
14:24 68.2 °F 67.1 °F 30.07 in SW 0.3 mph 1 mph 96.3% 0.04 in 169 W/m2
14:29 68.1 °F 67.4 °F 30.07 in Calm     97.3% 0.04 in 211 W/m2
14:34 68.4 °F 67.8 °F 30.07 in Calm     98% 0.04 in 215 W/m2
14:39 68.4 °F 67.7 °F 30.07 in SSW 0.3 mph 2 mph 97.8% 0.03 in 202 W/m2
14:44 68.3 °F 67.5 °F 30.07 in Calm   1 mph 97.3% 0.03 in 179 W/m2
14:49 68.3 °F 67.7 °F 30.06 in SSW 0.2 mph 1 mph 98% 0.03 in 176 W/m2
14:54 68.3 °F 67.7 °F 30.06 in Calm   1 mph 98% 0.03 in 174 W/m2
14:59 68.3 °F 67.6 °F 30.07 in Calm     97.7% 0.03 in 201 W/m2
15:04 68.3 °F 67.6 °F 30.07 in SSW 0.2 mph 2 mph 97.6% 0.03 in 215 W/m2
15:09 68.1 °F 67.2 °F 30.07 in SSW 0.4 mph 2 mph 97% 0.02 in 215 W/m2
15:14 68.2 °F 67.1 °F 30.07 in SSW 0.2 mph 2 mph 96.5% 0.02 in 195 W/m2
15:19 68.3 °F 67.3 °F 30.06 in SW 0.3 mph 1 mph 96.5% 0.01 in 215 W/m2
15:24 68.4 °F 67.2 °F 30.06 in Calm   1 mph 96% 0.01 in 216 W/m2
15:29 68.3 °F 67.1 °F 30.07 in SW 0.6 mph 2 mph 96% 0.00 in 178 W/m2
15:34 68.2 °F 67 °F 30.07 in SW 1 mph 3 mph 96% 0.00 in 183 W/m2
15:39 68.3 °F 67.1 °F 30.07 in SW 0.1 mph 1 mph 96% 0.00 in 187 W/m2
15:44 68.4 °F 67.2 °F 30.07 in SSW 0.8 mph 3 mph 96% 0.00 in 187 W/m2
15:49 68.4 °F 67.2 °F 30.06 in SW 1.2 mph 3 mph 96% 0.00 in 176 W/m2
15:54 68.4 °F 67.2 °F 30.06 in SW 0.4 mph 2 mph 96% 0.00 in 143 W/m2
15:59 68.6 °F 67.6 °F 30.06 in SW 0.1 mph 1 mph 96.6% 0.00 in 132 W/m2
16:04 68.8 °F 67.8 °F 30.05 in Calm     96.7% 0.00 in 181 W/m2
16:09 68.8 °F 67.7 °F 30.05 in Calm     96.1% 0.00 in 232 W/m2
16:14 68.9 °F 68 °F 30.05 in Calm     97% 0.00 in 234 W/m2
16:19 68.9 °F 67.7 °F 30.05 in SSW 0.3 mph 2 mph 96% 0.00 in 211 W/m2
16:24 68.9 °F 67.8 °F 30.05 in SW 0.4 mph 3 mph 96% 0.00 in 201 W/m2
16:29 69.1 °F 67.9 °F 30.05 in SW 0.1 mph 1 mph 96% 0.00 in 204 W/m2
16:34 69.3 °F 68.1 °F 30.04 in SSW 0.2 mph 2 mph 96% 0.00 in 181 W/m2
16:39 69.4 °F 68.2 °F 30.04 in SSW 0.2 mph 2 mph 96% 0.00 in 213 W/m2
16:44 69.5 °F 68.1 °F 30.04 in SW 0.2 mph 2 mph 95.2% 0.00 in 209 W/m2
16:49 69.4 °F 67.9 °F 30.04 in SSW 0.6 mph 3 mph 95% 0.00 in 183 W/m2
16:54 69.3 °F 67.5 °F 30.04 in South 0.3 mph 2 mph 94.1% 0.00 in 213 W/m2
16:59 69.2 °F 67.1 °F 30.04 in South 0.3 mph 2 mph 93% 0.00 in 248 W/m2
17:04 69.3 °F 66.9 °F 30.04 in SW 0.4 mph 2 mph 92.1% 0.00 in 238 W/m2
17:09 69.4 °F 66.7 °F 30.04 in SSW 0.9 mph 3 mph 91.2% 0.00 in 238 W/m2
17:14 69.6 °F 66.8 °F 30.04 in South 0.3 mph 2 mph 90.7% 0.00 in 181 W/m2
17:19 69.8 °F 66.9 °F 30.04 in South 0.2 mph 1 mph 90.3% 0.00 in 176 W/m2
17:24 69.9 °F 66.8 °F 30.04 in SSW 0.8 mph 3 mph 90% 0.00 in 120 W/m2
17:29 70.1 °F 67 °F 30.04 in SSW 0.1 mph 1 mph 90% 0.00 in 97 W/m2
17:34 70.3 °F 67.3 °F 30.03 in Calm   1 mph 90% 0.00 in 123 W/m2
17:39 70.4 °F 67.3 °F 30.03 in Calm     90% 0.00 in 141 W/m2
17:44 70.6 °F 67.5 °F 30.03 in Calm   1 mph 90% 0.00 in 139 W/m2
17:49 70.8 °F 67.7 °F 30.02 in Calm     90% 0.00 in 128 W/m2
17:54 70.8 °F 67.5 °F 30.02 in SSW 0.5 mph 2 mph 89.3% 0.00 in 114 W/m2
17:59 70.9 °F 67.5 °F 30.02 in SSW 0.3 mph 2 mph 89% 0.00 in 114 W/m2
18:04 70.9 °F 67.8 °F 30.02 in Calm     89.8% 0.00 in 99 W/m2
18:09 70.9 °F 67.6 °F 30.02 in Calm     89.2% 0.00 in 97 W/m2
18:14 70.9 °F 67.5 °F 30.02 in Calm     89% 0.00 in 125 W/m2
18:19 71.1 °F 67.7 °F 30.02 in Calm     89% 0.00 in 125 W/m2
18:24 71.1 °F 67.5 °F 30.02 in Calm     88.5% 0.00 in 104 W/m2
18:29 71.1 °F 67.7 °F 30.02 in Calm     89% 0.00 in 83 W/m2
18:34 71.1 °F 67.7 °F 30.02 in SSW 0.6 mph 3 mph 89% 0.00 in 72 W/m2
18:39 70.9 °F 67.7 °F 30.02 in SW 0.5 mph 3 mph 89.6% 0.00 in 62 W/m2
18:44 70.9 °F 67.8 °F 30.02 in SW 0.4 mph 2 mph 90% 0.00 in 58 W/m2
18:49 70.8 °F 67.7 °F 30.02 in SW 0.2 mph 1 mph 90% 0.00 in 55 W/m2
18:54 70.6 °F 67.8 °F 30.02 in SW 0.1 mph 1 mph 90.8% 0.00 in 42 W/m2
18:59 70.6 °F 68 °F 30.03 in Calm     91.5% 0.00 in 40 W/m2
19:04 70.6 °F 68.1 °F 30.03 in SW 0.1 mph 2 mph 92% 0.00 in 39 W/m2
19:09 70.4 °F 68 °F 30.03 in Calm   2 mph 92.1% 0.00 in 33 W/m2
19:14 70.4 °F 68.3 °F 30.03 in Calm     93% 0.00 in 19 W/m2
19:19 70.3 °F 68.3 °F 30.03 in Calm     93.4% 0.00 in 19 W/m2
19:24 70.2 °F 68.4 °F 30.03 in Calm     94% 0.00 in 19 W/m2
19:29 70 °F 68.2 °F 30.03 in Calm     94% 0.00 in 12 W/m2
19:34 69.9 °F 68.1 °F 30.03 in Calm     94% 0.00 in 11 W/m2
19:39 69.8 °F 68.1 °F 30.03 in Calm     94.5% 0.00 in 9 W/m2
19:44 69.7 °F 68.2 °F 30.03 in Calm     95% 0.00 in 9 W/m2
19:49 69.4 °F 67.9 °F 30.03 in Calm     95% 0.00 in 7 W/m2
19:54 69.3 °F 67.8 °F 30.03 in Calm     95% 0.00 in 5 W/m2
19:59 69.2 °F 67.9 °F 30.03 in Calm     95.5% 0.00 in 5 W/m2
20:04 69.1 °F 67.9 °F 30.03 in Calm     96% 0.00 in 7 W/m2
20:09 68.9 °F 67.7 °F 30.03 in Calm     96% 0.00 in 7 W/m2
20:14 68.8 °F 67.9 °F 30.04 in Calm     96.9% 0.00 in 5 W/m2
20:19 68.6 °F 67.8 °F 30.04 in Calm     97% 0.00 in 0 W/m2
20:24 68.6 °F 67.7 °F 30.04 in SW 0.2 mph 2 mph 97% 0.00 in 0 W/m2
20:29 68.4 °F 67.8 °F 30.04 in SW 0.1 mph 1 mph 97.8% 0.00 in 0 W/m2
20:34 68.4 °F 67.8 °F 30.04 in Calm     98% 0.00 in 0 W/m2
20:39 68.4 °F 67.8 °F 30.04 in Calm     98% 0.00 in 0 W/m2
20:44 68.4 °F 68 °F 30.04 in Calm     98.7% 0.00 in 0 W/m2
20:49 68.4 °F 68.1 °F 30.04 in Calm     99% 0.00 in 0 W/m2
20:54 68.3 °F 68 °F 30.04 in Calm     99% 0.00 in 0 W/m2
20:59 68.3 °F 68 °F 30.05 in Calm     99% 0.00 in 0 W/m2
21:04 68.3 °F 68 °F 30.05 in Calm     99% 0.00 in 0 W/m2
21:09 68.2 °F 67.9 °F 30.05 in Calm     99% 0.00 in 0 W/m2
21:14 68.1 °F 67.8 °F 30.06 in Calm     99% 0.00 in 0 W/m2
21:19 68 °F 67.8 °F 30.06 in Calm     99.3% 0.00 in 0 W/m2
21:24 67.9 °F 67.9 °F 30.06 in Calm     100% 0.00 in 0 W/m2
21:29 67.9 °F 67.9 °F 30.06 in Calm     100% 0.01 in 0 W/m2
21:34 67.9 °F 67.9 °F 30.06 in Calm     100% 0.01 in 0 W/m2
21:39 67.8 °F 67.8 °F 30.06 in Calm     100% 0.01 in 0 W/m2
21:44 67.8 °F 67.8 °F 30.06 in Calm     100% 0.01 in 0 W/m2
21:49 67.8 °F 67.8 °F 30.06 in Calm     100% 0.02 in 0 W/m2
21:54 67.8 °F 67.8 °F 30.06 in Calm     100% 0.02 in 0 W/m2
21:59 67.8 °F 67.8 °F 30.06 in Calm     100% 0.02 in 0 W/m2
22:04 67.8 °F 67.8 °F 30.06 in Calm     100% 0.03 in 0 W/m2
22:09 67.7 °F 67.7 °F 30.06 in ENE 0.2 mph 2 mph 100% 0.03 in 0 W/m2
22:14 67.6 °F 67.6 °F 30.06 in ENE 0.8 mph 2 mph 100% 0.03 in 0 W/m2
22:19 67.6 °F 67.6 °F 30.05 in NE 0.6 mph 2 mph 100% 0.04 in 0 W/m2
22:24 67.4 °F 67.4 °F 30.05 in NE 0.8 mph 2 mph 100% 0.04 in 0 W/m2
22:29 67.3 °F 67.3 °F 30.05 in NE 0.6 mph 2 mph 100% 0.04 in 0 W/m2
22:34 67.1 °F 67.1 °F 30.05 in NE 0.7 mph 2 mph 100% 0.04 in 0 W/m2
22:39 66.9 °F 66.9 °F 30.05 in NNE 0.1 mph 1 mph 100% 0.04 in 0 W/m2
22:44 66.8 °F 66.8 °F 30.05 in ENE 0.1 mph 1 mph 100% 0.05 in 0 W/m2
22:49 66.8 °F 66.8 °F 30.05 in East 0.1 mph 1 mph 100% 0.06 in 0 W/m2
22:54 66.6 °F 66.6 °F 30.05 in Calm     100% 0.07 in 0 W/m2
22:59 66.6 °F 66.6 °F 30.05 in Calm   1 mph 100% 0.10 in 0 W/m2
23:04 66.6 °F 66.6 °F 30.05 in Calm   1 mph 100% 0.11 in 0 W/m2
23:09 66.6 °F 66.6 °F 30.05 in ENE 0.1 mph 1 mph 100% 0.12 in 0 W/m2
23:14 66.8 °F 66.8 °F 30.05 in East 0.6 mph 2 mph 100% 0.13 in 0 W/m2
23:19 66.6 °F 66.6 °F 30.05 in Calm   1 mph 100% 0.13 in 0 W/m2
23:24 66.6 °F 66.6 °F 30.05 in ENE 0.2 mph 1 mph 100% 0.13 in 0 W/m2
23:29 66.4 °F 66.4 °F 30.05 in NNE 0.7 mph 2 mph 100% 0.16 in 0 W/m2
23:34 66.4 °F 66.4 °F 30.04 in NW 0.3 mph 1 mph 100% 0.18 in 0 W/m2
23:39 66.5 °F 66.5 °F 30.04 in WSW 0.1 mph 1 mph 100% 0.22 in 0 W/m2
23:40 66.4 °F 66.4 °F 30.04 in Calm   1 mph 100% 0.22 in 0 W/m2
Lisbon, New Hampshire, USA
Compliments of Weather Underground - 4 mb